createdAt,value
2023-05-12T00:01:20.108Z,4.68
2023-05-12T00:03:47.005Z,5.75
2023-05-12T00:06:14.034Z,5.95
2023-05-12T00:08:40.590Z,7.07
2023-05-12T00:11:07.456Z,4.05
2023-05-12T00:13:34.143Z,6.30
2023-05-12T00:16:00.865Z,5.70
2023-05-12T00:18:28.655Z,6.57
2023-05-12T00:20:57.373Z,8.68
2023-05-12T00:23:24.093Z,4.80
2023-05-12T00:25:51.131Z,7.78
2023-05-12T00:28:18.876Z,6.60
2023-05-12T00:30:45.513Z,5.72
2023-05-12T00:33:12.491Z,6.18
2023-05-12T00:35:39.070Z,5.72
2023-05-12T00:38:05.637Z,7.90
2023-05-12T00:40:32.184Z,6.15
2023-05-12T00:42:58.783Z,6.55
2023-05-12T00:45:25.386Z,5.78
2023-05-12T00:47:53.172Z,6.40
2023-05-12T00:50:20.928Z,5.28
2023-05-12T00:52:51.900Z,8.52
2023-05-12T00:55:18.954Z,5.53
2023-05-12T00:57:45.907Z,6.90
2023-05-12T01:00:13.037Z,5.87
2023-05-12T01:02:40.076Z,6.60
2023-05-12T01:05:07.118Z,6.10
2023-05-12T01:07:33.837Z,6.80
2023-05-12T01:10:00.443Z,5.32
2023-05-12T01:15:02.353Z,5.75
2023-05-12T01:17:33.272Z,5.20
2023-05-12T01:20:08.453Z,8.48
2023-05-12T01:22:36.109Z,5.72
2023-05-12T01:25:05.422Z,5.65
2023-05-12T01:28:20.212Z,6.05
2023-05-12T01:31:04.055Z,6.97
2023-05-12T01:33:31.351Z,6.90
2023-05-12T01:35:57.901Z,6.40
2023-05-12T01:38:24.648Z,7.28
2023-05-12T01:41:09.720Z,5.90
2023-05-12T01:43:38.901Z,6.93
2023-05-12T01:46:05.585Z,5.30
2023-05-12T01:48:32.135Z,4.57
2023-05-12T01:51:03.429Z,5.07
2023-05-12T01:53:29.987Z,6.30
2023-05-12T01:56:11.890Z,5.40
2023-05-12T01:58:38.505Z,5.93
2023-05-12T02:01:05.138Z,6.68
2023-05-12T02:03:31.963Z,6.72
2023-05-12T02:06:45.576Z,6.53
2023-05-12T02:09:58.994Z,7.35
2023-05-12T02:12:49.946Z,6.15
2023-05-12T02:15:16.643Z,5.25
2023-05-12T02:17:43.258Z,4.68
2023-05-12T02:20:12.277Z,6.10
2023-05-12T02:22:39.242Z,6.15
2023-05-12T02:25:06.473Z,7.43
2023-05-12T02:27:33.003Z,5.75
2023-05-12T02:29:59.561Z,5.43
2023-05-12T02:32:28.201Z,5.75
2023-05-12T02:34:57.940Z,5.57
2023-05-12T02:38:13.648Z,5.00
2023-05-12T02:41:18.960Z,5.28
2023-05-12T02:43:45.514Z,7.05
2023-05-12T02:46:12.131Z,5.57
2023-05-12T02:48:38.729Z,4.93
2023-05-12T02:51:05.481Z,7.30
2023-05-12T02:53:32.356Z,5.28
2023-05-12T02:56:11.351Z,4.82
2023-05-12T02:58:39.377Z,4.97
2023-05-12T03:04:01.356Z,5.75
2023-05-12T03:06:56.789Z,6.50
2023-05-12T03:09:35.475Z,5.55
2023-05-12T03:12:07.850Z,6.28
2023-05-12T03:14:34.409Z,6.12
2023-05-12T03:17:01.015Z,6.78
2023-05-12T03:19:30.129Z,6.97
2023-05-12T03:21:56.700Z,6.87
2023-05-12T03:24:23.344Z,7.95
2023-05-12T03:26:55.319Z,7.00
2023-05-12T03:29:22.363Z,6.78
2023-05-12T03:31:48.961Z,6.82
2023-05-12T03:34:15.522Z,7.62
2023-05-12T03:36:50.135Z,7.32
2023-05-12T03:39:38.837Z,6.80
2023-05-12T03:42:14.539Z,7.35
2023-05-12T03:44:41.302Z,7.57
2023-05-12T03:47:07.900Z,6.70
2023-05-12T03:49:34.520Z,6.20
2023-05-12T03:52:01.053Z,8.32
2023-05-12T03:57:03.763Z,6.20
2023-05-12T03:59:33.313Z,7.37
2023-05-12T04:01:59.957Z,6.37
2023-05-12T04:04:35.365Z,6.95
2023-05-12T04:07:01.901Z,9.68
2023-05-12T04:09:46.929Z,7.07
2023-05-12T04:13:00.290Z,5.90
2023-05-12T04:15:42.734Z,7.60
2023-05-12T04:38:41.976Z,7.15
2023-05-12T04:41:09.231Z,7.22
2023-05-12T04:46:05.710Z,7.43
2023-05-12T04:48:34.634Z,8.13
2023-05-12T04:51:01.294Z,7.57
2023-05-12T04:53:28.257Z,7.05
2023-05-12T04:55:56.674Z,7.37
2023-05-12T04:58:23.423Z,7.25
2023-05-12T05:00:50.057Z,8.02
2023-05-12T05:03:16.701Z,8.52
2023-05-12T05:05:43.366Z,7.40
2023-05-12T05:08:10.230Z,7.22
2023-05-12T05:10:37.171Z,6.43
2023-05-12T05:13:03.694Z,6.35
2023-05-12T05:15:30.265Z,7.07
2023-05-12T05:17:56.956Z,6.50
2023-05-12T05:20:27.863Z,7.75
2023-05-12T05:22:56.488Z,6.70
2023-05-12T05:25:23.089Z,7.30
2023-05-12T05:27:49.758Z,7.78
2023-05-12T05:30:19.267Z,8.85
2023-05-12T05:32:48.940Z,7.70
2023-05-12T05:35:15.786Z,7.62
2023-05-12T05:37:42.735Z,10.35
2023-05-12T05:40:11.274Z,7.22
2023-05-12T05:42:37.905Z,8.23
2023-05-12T05:47:39.747Z,7.97
2023-05-12T05:50:06.911Z,8.63
2023-05-12T05:52:33.464Z,7.10
2023-05-12T05:56:07.243Z,7.15
2023-05-12T05:59:03.172Z,9.80
2023-05-12T06:01:34.666Z,8.60
2023-05-12T06:06:36.497Z,7.93
2023-05-12T06:09:03.085Z,8.00
2023-05-12T06:11:29.621Z,8.70
2023-05-12T06:13:56.236Z,8.82
2023-05-12T06:16:22.909Z,9.18
2023-05-12T06:18:49.598Z,7.60
2023-05-12T06:21:16.219Z,9.68
2023-05-12T06:23:42.774Z,7.85
2023-05-12T06:26:09.637Z,7.55
2023-05-12T06:29:00.452Z,7.95
2023-05-12T06:31:27.234Z,7.68
2023-05-12T06:33:53.841Z,9.80
2023-05-12T06:36:20.536Z,9.50
2023-05-12T06:38:47.092Z,8.35
2023-05-12T06:42:03.263Z,7.18
2023-05-12T06:44:54.525Z,7.47
2023-05-12T06:47:21.143Z,7.28
2023-05-12T06:49:47.976Z,7.35
2023-05-12T06:52:14.514Z,10.35
2023-05-12T06:54:41.025Z,7.75
2023-05-12T06:57:07.631Z,7.78
2023-05-12T06:59:34.488Z,8.77
2023-05-12T07:02:01.325Z,9.23
2023-05-12T07:04:28.025Z,7.75
2023-05-12T07:06:54.619Z,9.40
2023-05-12T07:09:21.215Z,8.90
2023-05-12T07:11:48.279Z,9.27
2023-05-12T07:14:14.920Z,8.27
2023-05-12T07:16:41.483Z,8.52
2023-05-12T07:19:09.602Z,8.18
2023-05-12T07:21:37.382Z,9.38
2023-05-12T07:24:06.041Z,9.13
2023-05-12T07:26:32.683Z,9.32
2023-05-12T07:29:00.842Z,8.45
2023-05-12T07:31:27.999Z,6.95
2023-05-12T07:33:54.796Z,9.18
2023-05-12T07:36:22.053Z,7.93
2023-05-12T07:38:48.913Z,8.73
2023-05-12T07:41:15.524Z,7.97
2023-05-12T07:43:42.074Z,7.60
2023-05-12T07:46:08.667Z,9.43
2023-05-12T07:48:39.952Z,8.43
2023-05-12T07:51:07.931Z,7.37
2023-05-12T07:53:34.750Z,7.47
2023-05-12T07:56:01.838Z,7.97
2023-05-12T07:58:28.434Z,9.30
2023-05-12T08:00:55.023Z,8.18
2023-05-12T08:03:21.650Z,12.25
2023-05-12T08:05:48.253Z,9.07
2023-05-12T08:08:16.783Z,8.25
2023-05-12T08:10:44.306Z,8.35
2023-05-12T08:13:10.893Z,9.52
2023-05-12T08:15:37.424Z,7.40
2023-05-12T08:18:04.231Z,7.60
2023-05-12T08:20:31.555Z,7.32
2023-05-12T08:22:58.074Z,11.48
2023-05-12T08:25:25.035Z,7.60
2023-05-12T08:27:51.601Z,7.68
2023-05-12T08:30:18.546Z,8.82
2023-05-12T08:32:45.120Z,7.22
2023-05-12T08:35:11.687Z,8.95
2023-05-12T08:37:38.337Z,8.40
2023-05-12T08:40:31.692Z,7.78
2023-05-12T08:43:26.036Z,8.35
2023-05-12T08:46:00.124Z,8.30
2023-05-12T08:48:29.361Z,7.82
2023-05-12T08:50:57.899Z,8.70
2023-05-12T08:53:27.777Z,6.40
2023-05-12T08:57:09.815Z,8.98
2023-05-12T08:58:43.052Z,7.45
2023-05-12T09:01:12.117Z,9.10
2023-05-12T09:03:39.088Z,9.20
2023-05-12T09:06:07.236Z,8.50
2023-05-12T09:08:35.800Z,11.25
2023-05-12T09:11:02.764Z,8.23
2023-05-12T09:13:52.573Z,9.52
2023-05-12T09:16:23.820Z,9.10
2023-05-12T09:18:52.975Z,10.30
2023-05-12T09:21:20.019Z,10.45
2023-05-12T09:24:07.365Z,9.23
2023-05-12T09:26:54.119Z,9.43
2023-05-12T09:29:31.310Z,10.05
2023-05-12T09:32:02.870Z,9.90
2023-05-12T09:34:41.239Z,9.70
2023-05-12T09:37:08.573Z,8.35
2023-05-12T09:39:36.590Z,9.63
2023-05-12T09:42:03.427Z,11.32
2023-05-12T09:44:32.353Z,12.23
2023-05-12T09:47:29.429Z,10.63
2023-05-12T09:50:16.301Z,8.05
2023-05-12T09:52:42.981Z,9.32
2023-05-12T09:55:12.194Z,8.43
2023-05-12T09:57:45.718Z,8.35
2023-05-12T10:03:57.552Z,8.65
2023-05-12T10:06:32.224Z,7.00
2023-05-12T10:09:06.415Z,10.32
2023-05-12T10:11:33.561Z,9.15
2023-05-12T10:14:09.639Z,9.80
2023-05-12T10:16:36.867Z,11.65
2023-05-12T10:19:04.560Z,11.32
2023-05-12T10:21:32.089Z,11.38
2023-05-12T10:23:59.358Z,12.40
2023-05-12T10:26:27.402Z,9.75
2023-05-12T10:28:54.207Z,12.90
2023-05-12T10:31:22.330Z,12.23
2023-05-12T10:34:00.216Z,10.98
2023-05-12T10:36:26.949Z,11.63
2023-05-12T10:38:54.779Z,12.07
2023-05-12T10:41:32.796Z,13.68
2023-05-12T10:43:59.740Z,11.73
2023-05-12T10:46:27.221Z,13.20
2023-05-12T10:48:57.855Z,12.43
2023-05-12T10:51:28.294Z,12.27
2023-05-12T10:54:03.857Z,13.50
2023-05-12T10:56:51.427Z,13.07
2023-05-12T10:59:20.647Z,13.38
2023-05-12T11:02:05.124Z,14.57
2023-05-12T11:04:50.605Z,17.60
2023-05-12T11:07:24.495Z,12.63
2023-05-12T11:09:58.267Z,13.20
2023-05-12T11:12:29.421Z,11.43
2023-05-12T11:14:56.018Z,12.93
2023-05-12T11:17:22.651Z,12.15
2023-05-12T11:19:51.028Z,13.45
2023-05-12T11:22:22.512Z,13.95
2023-05-12T11:24:51.195Z,14.50
2023-05-12T11:27:20.491Z,14.13
2023-05-12T11:30:08.239Z,15.30
2023-05-12T11:32:34.825Z,15.75
2023-05-12T11:35:10.570Z,15.13
2023-05-12T11:37:39.798Z,12.82
2023-05-12T11:40:31.267Z,13.57
2023-05-12T11:43:20.266Z,16.70
2023-05-12T11:45:49.690Z,14.50
2023-05-12T11:48:16.886Z,16.27
2023-05-12T11:50:47.626Z,14.00
2023-05-12T11:53:17.409Z,12.90
2023-05-12T11:55:55.008Z,13.07
2023-05-12T11:58:30.718Z,13.73
2023-05-12T12:01:08.301Z,12.60
2023-05-12T12:03:48.970Z,12.20
2023-05-12T12:06:16.536Z,11.02
2023-05-12T12:09:26.030Z,12.68
2023-05-12T12:12:45.929Z,10.95
2023-05-12T12:15:13.107Z,11.57
2023-05-12T12:17:40.518Z,12.48
2023-05-12T12:20:09.011Z,12.48
2023-05-12T12:22:36.162Z,10.95
2023-05-12T12:25:03.883Z,10.13
2023-05-12T12:27:45.798Z,12.27
2023-05-12T12:30:13.223Z,12.10
2023-05-12T12:32:39.813Z,11.45
2023-05-12T12:35:06.889Z,10.18
2023-05-12T12:37:33.503Z,13.32
2023-05-12T12:40:44.005Z,12.60
2023-05-12T12:43:22.939Z,11.35
2023-05-12T12:45:49.636Z,11.63
2023-05-12T12:48:16.230Z,11.55
2023-05-12T12:50:42.793Z,10.50
2023-05-12T12:53:09.811Z,12.23
2023-05-12T12:55:36.784Z,10.60
2023-05-12T13:03:34.762Z,11.07
2023-05-12T13:06:01.332Z,11.75
2023-05-12T13:08:33.682Z,13.00
2023-05-12T13:11:00.779Z,12.20
2023-05-12T13:16:56.335Z,12.07
2023-05-12T13:19:22.990Z,11.40
2023-05-12T13:21:49.748Z,10.05
2023-05-12T13:24:16.643Z,10.07
2023-05-12T13:26:43.217Z,10.82
2023-05-12T13:29:09.817Z,11.77
2023-05-12T13:37:47.622Z,12.10
2023-05-12T13:43:13.342Z,10.82
2023-05-12T13:45:40.160Z,12.43
2023-05-12T13:50:51.645Z,11.12
2023-05-12T13:53:18.228Z,12.98
2023-05-12T13:55:45.084Z,13.43
2023-05-12T14:06:59.518Z,11.88
2023-05-12T14:09:26.187Z,13.52
2023-05-12T14:17:09.743Z,12.90
2023-05-12T14:19:36.327Z,16.27
2023-05-12T14:22:05.900Z,12.70
2023-05-12T14:24:36.575Z,12.27
2023-05-12T14:27:03.461Z,11.90
2023-05-12T14:29:32.894Z,13.62
2023-05-12T14:31:59.952Z,11.50
2023-05-12T14:34:26.607Z,13.00
2023-05-12T14:36:54.155Z,13.23
2023-05-12T14:39:20.817Z,16.60
2023-05-12T14:41:47.394Z,14.27
2023-05-12T14:44:14.270Z,15.20
2023-05-12T14:46:40.808Z,12.27
2023-05-12T14:49:10.999Z,13.32
2023-05-12T14:51:41.536Z,13.02
2023-05-12T14:54:21.895Z,11.00
2023-05-12T14:56:51.178Z,11.23
2023-05-12T14:59:17.723Z,15.77
2023-05-12T15:01:44.415Z,12.30
2023-05-12T15:04:11.015Z,14.15
2023-05-12T15:06:38.134Z,12.13
2023-05-12T15:09:05.022Z,11.95
2023-05-12T15:11:31.617Z,11.93
2023-05-12T15:13:58.227Z,13.02
2023-05-12T15:16:26.222Z,14.45
2023-05-12T15:18:52.920Z,11.82
2023-05-12T15:21:19.444Z,12.55
2023-05-12T15:23:46.003Z,11.77
2023-05-12T15:26:27.114Z,12.90
2023-05-12T15:28:58.327Z,13.90
2023-05-12T15:31:28.244Z,15.02
2023-05-12T15:33:56.648Z,14.68
2023-05-12T15:36:23.276Z,12.73
2023-05-12T15:38:49.866Z,15.07
2023-05-12T15:41:16.474Z,11.35
2023-05-12T15:43:43.014Z,13.10
2023-05-12T15:46:11.025Z,12.20
2023-05-12T15:48:37.866Z,12.60
2023-05-12T15:51:04.968Z,13.35
2023-05-12T15:53:31.720Z,14.73
2023-05-12T15:56:05.600Z,14.65
2023-05-12T15:58:32.370Z,14.27
2023-05-12T16:00:59.516Z,12.43
2023-05-12T16:03:26.430Z,11.30
2023-05-12T16:05:53.419Z,11.88
2023-05-12T16:08:20.442Z,12.82
2023-05-12T16:10:47.190Z,12.93
2023-05-12T16:13:14.481Z,12.80
2023-05-12T16:15:41.079Z,13.30
2023-05-12T16:18:10.916Z,12.13
2023-05-12T16:20:38.817Z,12.88
2023-05-12T16:23:05.465Z,13.68
2023-05-12T16:25:32.012Z,11.98
2023-05-12T16:27:58.552Z,14.27
2023-05-12T16:30:25.106Z,17.77
2023-05-12T16:32:51.799Z,16.30
2023-05-12T16:35:19.076Z,14.65
2023-05-12T16:37:45.960Z,14.60
2023-05-12T16:40:13.041Z,11.15
2023-05-12T16:42:39.585Z,12.95
2023-05-12T16:45:08.863Z,13.60
2023-05-12T16:47:35.536Z,12.93
2023-05-12T16:50:08.178Z,11.70
2023-05-12T16:52:34.833Z,16.37
2023-05-12T16:55:01.398Z,13.65
2023-05-12T16:57:28.000Z,12.52
2023-05-12T16:59:54.509Z,12.05
2023-05-12T17:02:21.120Z,11.43
2023-05-12T17:04:47.991Z,10.27
2023-05-12T17:07:14.715Z,11.93
2023-05-12T17:09:41.329Z,10.55
2023-05-12T17:12:08.537Z,12.90
2023-05-12T17:14:35.238Z,12.02
2023-05-12T17:17:02.306Z,9.70
2023-05-12T17:19:29.251Z,12.43
2023-05-12T17:21:55.942Z,13.30
2023-05-12T17:24:22.477Z,11.48
2023-05-12T17:26:49.259Z,11.63
2023-05-12T17:29:16.028Z,12.20
2023-05-12T17:31:43.034Z,12.80
2023-05-12T17:34:09.737Z,12.35
2023-05-12T17:36:36.396Z,11.40
2023-05-12T17:39:03.586Z,12.23
2023-05-12T17:41:30.432Z,11.43
2023-05-12T17:43:57.144Z,10.50
2023-05-12T17:46:23.808Z,11.45
2023-05-12T17:48:50.712Z,12.85
2023-05-12T17:51:18.213Z,11.15
2023-05-12T17:53:44.753Z,11.68
2023-05-12T17:56:11.601Z,11.85
2023-05-12T17:58:38.508Z,11.32
2023-05-12T18:01:05.217Z,11.85
2023-05-12T18:03:31.868Z,13.62
2023-05-12T18:05:58.456Z,11.60
2023-05-12T18:08:25.042Z,10.77
2023-05-12T18:10:51.856Z,12.15
2023-05-12T18:13:18.732Z,11.98
2023-05-12T18:15:45.262Z,10.32
2023-05-12T18:18:12.503Z,11.38
2023-05-12T18:20:39.169Z,11.05
2023-05-12T18:23:05.803Z,12.63
2023-05-12T18:25:32.441Z,10.35
2023-05-12T18:27:59.058Z,11.30
2023-05-12T18:30:25.718Z,10.02
2023-05-12T18:32:52.380Z,10.85
2023-05-12T18:35:19.756Z,9.63
2023-05-12T18:37:46.568Z,10.40
2023-05-12T18:40:13.210Z,12.32
2023-05-12T18:42:39.877Z,10.85
2023-05-12T18:45:07.084Z,10.57
2023-05-12T18:47:34.408Z,12.25
2023-05-12T18:50:01.582Z,10.00
2023-05-12T18:52:28.099Z,9.80
2023-05-12T18:54:54.661Z,10.57
2023-05-12T18:57:21.664Z,8.85
2023-05-12T18:59:48.366Z,9.85
2023-05-12T19:02:30.384Z,10.23
2023-05-12T19:04:59.026Z,9.38
2023-05-12T19:07:25.652Z,9.00
2023-05-12T19:09:52.177Z,10.70
2023-05-12T19:13:05.409Z,10.25
2023-05-12T19:19:26.498Z,9.57
2023-05-12T19:27:30.720Z,10.93
2023-05-12T19:29:57.674Z,9.90
2023-05-12T19:32:34.450Z,10.23
2023-05-12T19:35:01.146Z,13.90
2023-05-12T19:37:27.879Z,11.07
2023-05-12T19:39:54.421Z,10.25
2023-05-12T19:43:00.519Z,10.50
2023-05-12T19:45:58.291Z,11.88
2023-05-12T19:48:24.952Z,10.70
2023-05-12T19:50:54.107Z,11.70
2023-05-12T19:53:20.958Z,11.82
2023-05-12T19:55:47.514Z,12.40
2023-05-12T19:58:14.040Z,14.73
2023-05-12T20:00:41.222Z,12.27
2023-05-12T20:03:08.217Z,12.40
2023-05-12T20:05:36.574Z,10.15
2023-05-12T20:08:03.376Z,12.27
2023-05-12T20:10:30.096Z,11.73
2023-05-12T20:12:56.744Z,11.32
2023-05-12T20:15:23.458Z,13.35
2023-05-12T20:17:50.172Z,12.10
2023-05-12T20:20:16.751Z,12.23
2023-05-12T20:22:43.352Z,12.23
2023-05-12T20:25:12.402Z,11.40
2023-05-12T20:27:38.965Z,14.23
2023-05-12T20:30:06.414Z,12.88
2023-05-12T20:32:33.093Z,11.40
2023-05-12T20:34:59.746Z,11.20
2023-05-12T20:37:26.317Z,11.57
2023-05-12T20:39:54.072Z,13.25
2023-05-12T20:42:20.698Z,12.15
2023-05-12T20:44:47.397Z,12.23
2023-05-12T20:47:13.997Z,13.43
2023-05-12T20:49:40.999Z,13.98
2023-05-12T20:52:07.852Z,11.40
2023-05-12T20:54:34.409Z,14.07
2023-05-12T20:57:01.070Z,11.90
2023-05-12T20:59:27.612Z,12.10
2023-05-12T21:01:56.466Z,16.10
2023-05-12T21:04:23.189Z,15.10
2023-05-12T21:06:51.513Z,13.80
2023-05-12T21:09:20.174Z,15.25
2023-05-12T21:11:47.252Z,12.65
2023-05-12T21:14:14.061Z,13.32
2023-05-12T21:16:40.758Z,13.38
2023-05-12T21:19:09.237Z,14.70
2023-05-12T21:21:36.094Z,12.50
2023-05-12T21:24:02.708Z,13.13
2023-05-12T21:26:29.354Z,11.27
2023-05-12T21:28:56.218Z,13.82
2023-05-12T21:31:22.837Z,13.57
2023-05-12T21:33:49.574Z,13.65
2023-05-12T21:36:16.103Z,12.45
2023-05-12T21:38:42.773Z,13.57
2023-05-12T21:41:09.356Z,13.20
2023-05-12T21:43:35.928Z,12.35
2023-05-12T21:46:04.072Z,12.65
2023-05-12T21:48:32.065Z,13.35
2023-05-12T21:51:02.875Z,10.93
2023-05-12T21:53:29.625Z,12.18
2023-05-12T21:55:56.279Z,12.65
2023-05-12T21:58:23.750Z,12.68
2023-05-12T22:00:53.637Z,11.65
2023-05-12T22:03:21.826Z,13.02
2023-05-12T22:05:48.727Z,12.35
2023-05-12T22:08:16.323Z,12.18
2023-05-12T22:10:43.843Z,11.98
2023-05-12T22:13:10.557Z,12.37
2023-05-12T22:15:37.215Z,14.00
2023-05-12T22:18:03.937Z,14.10
2023-05-12T22:20:30.521Z,14.10
2023-05-12T22:22:57.632Z,11.73
2023-05-12T22:25:24.347Z,12.93
2023-05-12T22:27:50.941Z,11.40
2023-05-12T22:30:18.857Z,10.80
2023-05-12T22:35:41.605Z,10.70
2023-05-12T22:38:10.576Z,9.60
2023-05-12T22:46:20.468Z,11.30
2023-05-12T22:52:37.706Z,11.02
2023-05-12T22:55:04.769Z,11.80
2023-05-12T23:00:07.358Z,12.13
2023-05-12T23:02:36.017Z,14.73
2023-05-12T23:05:04.024Z,12.60
2023-05-12T23:07:30.601Z,11.18
2023-05-12T23:09:57.164Z,10.10
2023-05-12T23:12:23.741Z,11.70
2023-05-12T23:14:50.838Z,11.07
2023-05-12T23:17:17.416Z,10.38
2023-05-12T23:19:44.037Z,11.32
2023-05-12T23:24:46.014Z,11.95
2023-05-12T23:27:12.586Z,12.23
2023-05-12T23:29:39.171Z,11.60
2023-05-12T23:32:06.204Z,10.40
2023-05-12T23:34:32.867Z,10.68
2023-05-12T23:37:37.543Z,9.88
2023-05-12T23:40:29.186Z,11.18
2023-05-12T23:42:55.726Z,10.18
2023-05-12T23:47:57.934Z,11.75
2023-05-12T23:50:24.862Z,10.73
2023-05-12T23:52:56.458Z,11.02
2023-05-12T23:55:38.564Z,11.85
2023-05-12T23:58:05.160Z,10.20
